Time;durP1;ratioP1;P1;durP2;ratioP2;P2;SDS_P1;SDS_P2;PMS_P1;PMS_P2;Temp;Humidity;BMP_temperature;BMP_pressure;BME280_temperature;BME280_humidity;BME280_pressure;Samples;Min_cycle;Max_cycle;Signal;HPM_P1;HPM_P2
2022/06/18 00:00:47;;;;;;;10.30;3.50;;;;;;;17.56;39.65;101382.91;5138662;27;20134;-69
2022/06/18 00:03:14;;;;;;;4.88;3.13;;;;;;;17.52;39.67;101375.34;5139250;27;20090;-70
2022/06/18 00:05:43;;;;;;;10.18;2.33;;;;;;;17.33;40.08;101368.59;5139366;27;20466;-70
2022/06/18 00:08:22;;;;;;;4.13;2.55;;;;;;;17.20;40.42;101363.00;5138406;27;20138;-69
2022/06/18 00:10:53;;;;;;;4.45;2.72;;;;;;;17.17;40.07;101364.25;5138424;27;20530;-69
2022/06/18 00:13:39;;;;;;;12.13;3.15;;;;;;;17.12;40.09;101364.78;5138468;27;20051;-69
2022/06/18 00:16:10;;;;;;;5.63;2.97;;;;;;;17.07;40.45;101359.09;5137584;27;20040;-69
2022/06/18 00:18:37;;;;;;;;;;;;;;;17.05;40.64;101355.72;5138278;27;20104;-69
2022/06/18 00:21:06;;;;;;;4.55;2.58;;;;;;;17.06;40.83;101352.00;5138070;27;20333;-69
2022/06/18 00:23:33;;;;;;;6.55;3.30;;;;;;;17.01;40.58;101359.84;5137774;27;20150;-69
2022/06/18 00:26:00;;;;;;;5.72;3.42;;;;;;;17.03;40.51;101357.78;5137552;27;20051;-69
2022/06/18 00:28:31;;;;;;;5.70;2.83;;;;;;;16.92;40.78;101354.69;5137743;27;20142;-69
2022/06/18 00:30:57;;;;;;;4.65;2.70;;;;;;;16.88;40.95;101352.34;5119099;27;20094;-69
2022/06/18 00:33:24;;;;;;;9.80;3.15;;;;;;;16.94;41.15;101347.22;5137974;27;20050;-69
2022/06/18 00:35:56;;;;;;;6.97;2.83;;;;;;;16.93;41.02;101350.97;5137520;27;20082;-69
2022/06/18 00:38:26;;;;;;;6.88;2.88;;;;;;;16.79;41.16;101339.94;5137937;27;20479;-69
2022/06/18 00:40:54;;;;;;;6.40;3.20;;;;;;;16.71;41.54;101341.88;5137732;27;20130;-69
2022/06/18 00:43:27;;;;;;;3.85;2.65;;;;;;;16.63;41.38;101334.69;5137948;27;20089;-69
2022/06/18 00:46:00;;;;;;;11.90;3.13;;;;;;;16.65;41.53;101333.47;5137743;27;20079;-69
2022/06/18 00:48:37;;;;;;;8.77;3.10;;;;;;;16.60;41.52;101325.06;5137318;27;20058;-68
2022/06/18 00:51:12;;;;;;;9.48;3.05;;;;;;;16.58;41.73;101332.53;5137420;27;20093;-68
2022/06/18 00:54:08;;;;;;;10.38;3.25;;;;;;;16.56;41.85;101328.31;5137856;27;20075;-68
2022/06/18 00:57:00;;;;;;;4.28;2.90;;;;;;;16.58;41.63;101337.97;5103600;27;20058;-70
2022/06/18 00:59:41;;;;;;;7.70;3.30;;;;;;;16.53;41.81;101323.28;5137838;27;20074;-69
2022/06/18 01:02:13;;;;;;;10.98;4.28;;;;;;;16.51;41.88;101320.78;5137482;27;20054;-70
2022/06/18 01:04:40;;;;;;;8.75;3.80;;;;;;;16.61;42.10;101318.63;5129294;27;20078;-70
2022/06/18 01:07:27;;;;;;;10.77;4.38;;;;;;;16.60;41.85;101322.34;5137810;27;20383;-69
2022/06/18 01:09:54;;;;;;;15.23;4.00;;;;;;;16.55;41.83;101313.13;5137714;27;20067;-70
2022/06/18 01:12:23;;;;;;;5.95;3.35;;;;;;;16.50;42.18;101313.66;5137465;27;20047;-69
2022/06/18 01:14:56;;;;;;;6.30;3.47;;;;;;;16.50;42.35;101308.22;5137347;27;20118;-69
2022/06/18 01:17:23;;;;;;;7.63;4.03;;;;;;;16.50;42.62;101308.22;5137896;27;20494;-70
2022/06/18 01:19:50;;;;;;;8.48;3.72;;;;;;;16.46;42.66;101303.34;5138183;27;20471;-70
2022/06/18 01:22:52;;;;;;;6.45;3.65;;;;;;;16.35;42.75;101304.66;5137765;27;20074;-69
2022/06/18 01:25:21;;;;;;;;;;;;;;;16.28;42.84;101309.09;5128772;27;20133;-70
2022/06/18 01:27:48;;;;;;;6.03;3.70;;;;;;;16.24;42.94;101294.25;5136786;27;19969;-69
2022/06/18 01:30:17;;;;;;;9.90;3.88;;;;;;;16.17;43.13;101300.41;5136743;27;20079;-69
2022/06/18 01:32:46;;;;;;;7.47;3.33;;;;;;;16.03;43.46;101295.78;5136503;27;20082;-70
2022/06/18 01:35:13;;;;;;;6.45;3.55;;;;;;;16.00;43.72;101296.16;5137098;27;20090;-69
2022/06/18 01:37:40;;;;;;;8.75;3.65;;;;;;;15.92;43.87;101282.72;5136192;27;20138;-70
2022/06/18 01:40:12;;;;;;;15.57;3.55;;;;;;;15.80;44.29;101278.72;5136590;27;20142;-70
2022/06/18 01:42:43;;;;;;;4.57;3.20;;;;;;;15.81;44.16;101280.41;5136136;27;20460;-70
2022/06/18 01:45:16;;;;;;;10.02;3.85;;;;;;;15.77;44.31;101274.53;5136578;27;20138;-70
2022/06/18 01:47:50;;;;;;;6.82;3.22;;;;;;;15.81;44.19;101275.00;5136154;27;20083;-69
2022/06/18 01:50:22;;;;;;;6.00;3.30;;;;;;;15.76;44.51;101266.59;5135994;27;20133;-70
2022/06/18 01:52:53;;;;;;;4.05;3.40;;;;;;;15.68;44.57;101262.94;5136037;27;20051;-70
2022/06/18 01:55:27;;;;;;;5.03;3.33;;;;;;;15.78;44.48;101261.81;5136486;27;20054;-69
2022/06/18 01:57:59;;;;;;;7.63;3.25;;;;;;;15.60;44.88;101257.53;5136634;27;20057;-70
2022/06/18 02:00:28;;;;;;;7.20;3.10;;;;;;;15.48;45.14;101259.81;5135769;27;20082;-69
2022/06/18 02:02:57;;;;;;;6.93;3.17;;;;;;;15.44;45.31;101261.22;5135981;27;20085;-69
2022/06/18 02:05:24;;;;;;;7.10;3.30;;;;;;;15.41;45.35;101258.03;5136292;27;20479;-68
2022/06/18 02:07:51;;;;;;;5.85;2.83;;;;;;;15.47;45.32;101243.81;5135849;27;20089;-70
2022/06/18 02:10:21;;;;;;;8.80;3.25;;;;;;;15.35;45.47;101246.06;5135801;27;20483;-70
2022/06/18 02:12:48;;;;;;;8.05;2.75;;;;;;;15.49;45.02;101242.56;5135901;27;20524;-69
2022/06/18 02:15:26;;;;;;;5.57;2.67;;;;;;;15.49;45.01;101239.03;5135671;27;20053;-70
2022/06/18 02:17:53;;;;;;;4.75;2.70;;;;;;;15.44;45.14;101230.63;5136080;27;20043;-69
2022/06/18 02:20:26;;;;;;;7.00;2.72;;;;;;;15.43;45.29;101231.63;5136246;27;20059;-69
2022/06/18 02:22:55;;;;;;;8.82;2.70;;;;;;;15.32;45.61;101232.88;5135481;27;20146;-69
2022/06/18 02:25:25;;;;;;;10.50;3.15;;;;;;;15.33;45.68;101225.63;5135290;27;20046;-69
2022/06/18 02:27:56;;;;;;;6.72;2.95;;;;;;;15.33;45.61;101233.72;5136015;27;20047;-70
2022/06/18 02:30:27;;;;;;;3.70;2.90;;;;;;;15.34;46.02;101232.72;5136062;28;20092;-69
2022/06/18 02:33:03;;;;;;;7.13;2.73;;;;;;;15.21;45.73;101220.63;5136067;28;20471;-70
2022/06/18 02:35:32;;;;;;;3.63;2.70;;;;;;;15.17;45.98;101224.72;5135743;28;20316;-70
2022/06/18 02:38:00;;;;;;;6.93;2.58;;;;;;;15.13;46.06;101226.09;5135710;28;20162;-70
2022/06/18 02:40:30;;;;;;;4.18;2.70;;;;;;;15.14;46.19;101235.88;5135819;28;20530;-69
2022/06/18 02:42:59;;;;;;;6.03;2.30;;;;;;;15.09;46.17;101229.34;5136455;28;20489;-70
2022/06/18 02:45:29;;;;;;;8.63;3.00;;;;;;;14.97;46.73;101227.00;5135318;28;20100;-69
2022/06/18 02:47:59;;;;;;;3.97;2.53;;;;;;;15.00;46.59;101215.84;5136044;28;20116;-69
2022/06/18 02:50:31;;;;;;;8.20;2.42;;;;;;;15.03;46.80;101222.78;5135831;28;20126;-68
2022/06/18 02:53:01;;;;;;;7.35;2.70;;;;;;;15.07;46.83;101209.75;5135113;28;20138;-68
2022/06/18 02:55:36;;;;;;;8.43;2.60;;;;;;;14.93;46.77;101201.38;5135265;28;20063;-68
2022/06/18 02:58:35;;;;;;;4.45;2.70;;;;;;;14.95;47.17;101203.91;5135209;28;20141;-67
2022/06/18 03:01:05;;;;;;;4.50;2.53;;;;;;;14.93;47.06;101195.13;5135349;28;20097;-68
2022/06/18 03:03:38;;;;;;;4.75;2.53;;;;;;;14.94;47.47;101200.34;5135284;28;20134;-67
2022/06/18 03:06:08;;;;;;;9.32;2.90;;;;;;;14.90;47.22;101195.50;5134878;28;20054;-68
2022/06/18 03:08:36;;;;;;;6.97;2.28;;;;;;;14.83;47.15;101199.91;5135239;28;20091;-68
2022/06/18 03:13:49;;;;;;;4.95;2.28;;;;;;;14.74;47.55;101202.66;5135882;28;20083;-68
2022/06/18 03:16:18;;;;;;;5.13;2.17;;;;;;;14.73;47.51;101198.25;5135014;27;20043;-68
2022/06/18 03:18:45;;;;;;;3.78;2.25;;;;;;;14.77;47.44;101194.22;5135196;28;20043;-67
2022/06/18 03:21:20;;;;;;;3.47;2.30;;;;;;;14.77;47.33;101193.34;5136261;28;20076;-67
2022/06/18 03:23:47;;;;;;;6.47;2.30;;;;;;;14.72;47.59;101193.06;5136302;28;20099;-67
2022/06/18 03:26:16;;;;;;;9.65;2.95;;;;;;;14.83;47.86;101189.13;5132815;28;20102;-68
2022/06/18 03:28:44;;;;;;;7.15;2.45;;;;;;;14.82;47.36;101180.19;5136587;28;20475;-67
2022/06/18 03:31:11;;;;;;;4.43;2.55;;;;;;;14.83;47.26;101189.94;5136425;28;20146;-68
2022/06/18 03:33:38;;;;;;;8.45;2.75;;;;;;;14.89;47.24;101177.59;5135661;27;20064;-68
2022/06/18 03:36:06;;;;;;;4.88;2.70;;;;;;;14.85;47.19;101174.41;5139004;27;20067;-68
2022/06/18 03:38:32;;;;;;;3.47;2.28;;;;;;;14.86;47.37;101169.84;5140708;27;20138;-69
2022/06/18 03:40:59;;;;;;;6.03;2.60;;;;;;;14.91;47.21;101170.16;5140758;27;20047;-68
2022/06/18 03:43:27;;;;;;;10.80;2.90;;;;;;;14.93;47.27;101173.53;5140640;27;20047;-68
2022/06/18 03:45:59;;;;;;;8.82;2.70;;;;;;;14.96;47.15;101156.97;5140455;27;20521;-68
2022/06/18 03:48:30;;;;;;;4.93;2.40;;;;;;;14.98;47.11;101160.31;5141154;27;20058;-68
2022/06/18 03:50:56;;;;;;;4.40;2.83;;;;;;;14.95;47.09;101158.81;5140013;27;20058;-68
2022/06/18 03:53:24;;;;;;;11.98;2.53;;;;;;;15.01;46.90;101151.84;5140692;27;20105;-68
2022/06/18 03:55:51;;;;;;;6.50;2.58;;;;;;;15.05;46.78;101149.63;5140401;27;20066;-69
2022/06/18 03:58:18;;;;;;;4.82;2.35;;;;;;;15.09;46.67;101149.13;5140018;27;20137;-68
2022/06/18 04:00:45;;;;;;;5.28;2.25;;;;;;;15.00;47.00;101147.47;5140619;27;20103;-68
2022/06/18 04:03:12;;;;;;;10.13;2.55;;;;;;;15.07;46.68;101153.84;5140521;27;20078;-69
2022/06/18 04:05:40;;;;;;;5.72;2.60;;;;;;;15.10;46.95;101145.38;5140207;27;20047;-68
2022/06/18 04:08:11;;;;;;;6.43;2.42;;;;;;;15.10;46.93;101150.78;5139738;27;20043;-68
2022/06/18 04:10:38;;;;;;;11.45;6.03;;;;;;;15.17;46.75;101143.63;5140228;27;20093;-68
2022/06/18 04:13:04;;;;;;;3.22;2.42;;;;;;;15.18;46.64;101139.91;5121925;27;20134;-68
2022/06/18 04:15:31;;;;;;;6.95;3.45;;;;;;;15.19;46.69;101138.91;5139790;27;20077;-68
2022/06/18 04:17:58;;;;;;;6.65;3.13;;;;;;;15.11;46.51;101133.53;5139323;27;20051;-68
2022/06/18 04:20:28;;;;;;;14.02;5.03;;;;;;;15.14;46.62;101133.19;5138881;27;20092;-68
2022/06/18 04:22:55;;;;;;;4.45;2.55;;;;;;;15.15;46.63;101126.75;5140345;27;20051;-68
2022/06/18 04:25:23;;;;;;;5.72;2.88;;;;;;;15.16;46.75;101125.75;5139636;27;20059;-69
2022/06/18 04:27:50;;;;;;;5.80;2.85;;;;;;;15.17;46.63;101121.19;5139156;27;20086;-69
2022/06/18 04:30:18;;;;;;;4.68;2.45;;;;;;;15.21;46.60;101122.50;5138566;27;20134;-68
2022/06/18 04:32:44;;;;;;;4.85;2.33;;;;;;;15.11;46.72;101113.78;5137814;27;20151;-69
2022/06/18 04:35:13;;;;;;;11.20;2.58;;;;;;;15.13;46.78;101109.06;5137174;27;20051;-69
2022/06/18 04:37:43;;;;;;;7.05;1.60;;;;;;;15.15;46.59;101115.94;5137144;27;20090;-69
2022/06/18 04:40:14;;;;;;;9.00;2.25;;;;;;;15.10;46.84;101109.41;5137292;27;20047;-68
2022/06/18 04:42:40;;;;;;;5.22;2.42;;;;;;;15.25;46.80;101105.72;5136839;27;20148;-69
2022/06/18 04:45:08;;;;;;;6.65;2.20;;;;;;;15.32;46.35;101105.00;5136827;27;20090;-69
2022/06/18 04:47:35;;;;;;;3.33;2.00;;;;;;;15.30;46.52;101104.38;5137251;27;20126;-69
2022/06/18 04:50:04;;;;;;;3.00;1.80;;;;;;;15.33;46.46;101104.84;5136893;27;20135;-68
2022/06/18 04:52:31;;;;;;;7.40;2.08;;;;;;;15.41;46.41;101107.47;5136768;27;20047;-68
2022/06/18 04:54:57;;;;;;;4.35;2.10;;;;;;;15.42;45.91;101100.19;5136695;27;20138;-68
2022/06/18 04:57:24;;;;;;;7.07;1.30;;;;;;;15.50;45.95;101097.41;5136961;27;20071;-68
2022/06/18 04:59:50;;;;;;;4.25;2.28;;;;;;;15.66;46.05;101094.56;5136584;27;20133;-69
2022/06/18 05:02:22;;;;;;;5.97;1.90;;;;;;;15.75;45.42;101091.81;5136656;27;20071;-69
2022/06/18 05:04:49;;;;;;;;;;;;;;;15.88;45.48;101089.25;5137204;27;20447;-68
2022/06/18 05:07:15;;;;;;;5.70;1.60;;;;;;;15.92;45.33;101094.13;5136548;27;19942;-68
2022/06/18 05:09:42;;;;;;;7.35;2.40;;;;;;;16.02;44.84;101084.88;5136708;27;20047;-69
2022/06/18 05:12:09;;;;;;;4.80;1.60;;;;;;;16.14;44.43;101086.09;5136326;27;20462;-68
2022/06/18 05:14:42;;;;;;;3.22;1.38;;;;;;;16.21;44.39;101078.06;5136356;27;20126;-69
2022/06/18 05:17:14;;;;;;;4.32;1.38;;;;;;;16.30;43.96;101087.78;5136236;27;20047;-68
2022/06/18 05:19:41;;;;;;;7.28;1.60;;;;;;;16.41;43.55;101084.56;5136536;27;20158;-68
2022/06/18 05:22:09;;;;;;;4.65;1.77;;;;;;;16.45;44.02;101083.16;5136465;27;20089;-68
2022/06/18 05:24:36;;;;;;;5.80;1.30;;;;;;;16.55;43.81;101082.88;5135570;27;20154;-69
2022/06/18 05:27:04;;;;;;;8.10;1.77;;;;;;;16.68;43.45;101083.03;5135816;27;20078;-69
2022/06/18 05:29:31;;;;;;;1.85;1.27;;;;;;;16.71;43.12;101081.78;5136586;27;20086;-69
2022/06/18 05:31:58;;;;;;;5.20;1.55;;;;;;;16.79;42.85;101074.41;5136223;27;20086;-68
2022/06/18 05:34:24;;;;;;;8.10;1.83;;;;;;;16.87;42.64;101071.56;5136670;27;20134;-68
2022/06/18 05:36:51;;;;;;;4.53;1.67;;;;;;;16.94;42.93;101076.22;5136156;27;20067;-69
2022/06/18 05:39:19;;;;;;;6.60;1.23;;;;;;;16.98;42.68;101069.34;5136240;27;20125;-68
2022/06/18 05:41:46;;;;;;;5.25;1.38;;;;;;;17.04;42.51;101072.13;5135789;27;20089;-68
2022/06/18 05:44:12;;;;;;;3.53;1.25;;;;;;;17.10;42.91;101059.69;5135741;27;20130;-69
2022/06/18 05:46:40;;;;;;;14.90;1.70;;;;;;;17.23;42.05;101064.34;5135716;27;20383;-69
2022/06/18 05:49:07;;;;;;;5.20;1.60;;;;;;;17.30;42.23;101068.81;5135420;27;20051;-68
2022/06/18 05:51:34;;;;;;;12.50;3.83;;;;;;;17.37;41.68;101071.59;5135569;27;20089;-68
2022/06/18 05:54:00;;;;;;;4.93;1.58;;;;;;;17.42;42.23;101068.31;5135517;27;20211;-68
2022/06/18 05:56:27;;;;;;;2.83;1.65;;;;;;;17.54;42.48;101067.56;5135329;27;20075;-69
2022/06/18 05:58:53;;;;;;;5.60;1.50;;;;;;;17.59;42.25;101064.28;5135232;27;20071;-69
2022/06/18 06:01:22;;;;;;;4.35;1.83;;;;;;;17.64;42.21;101077.22;5135386;27;20051;-69
2022/06/18 06:03:49;;;;;;;7.82;1.80;;;;;;;17.68;41.79;101071.19;5135992;27;20047;-68
2022/06/18 06:06:15;;;;;;;8.68;1.80;;;;;;;17.74;41.39;101075.00;5137450;27;20409;-69
2022/06/18 06:08:42;;;;;;;2.78;1.48;;;;;;;17.83;41.49;101068.38;5137876;27;20074;-70
2022/06/18 06:13:55;;;;;;;5.25;1.95;;;;;;;17.95;41.33;101069.47;5141498;27;20387;-70
2022/06/18 06:16:21;;;;;;;10.15;1.88;;;;;;;17.92;41.10;101059.03;5135092;27;20043;-69
2022/06/18 06:18:48;;;;;;;9.70;1.70;;;;;;;17.99;40.83;101064.50;5135290;27;20047;-70
2022/06/18 06:21:15;;;;;;;5.47;1.58;;;;;;;18.09;40.51;101060.38;5135406;27;20462;-69
2022/06/18 06:23:42;;;;;;;5.97;1.80;;;;;;;18.18;40.30;101058.34;5135084;27;20134;-69
2022/06/18 06:26:21;;;;;;;13.48;2.28;;;;;;;18.25;40.28;101063.81;5134910;27;20172;-69
2022/06/18 06:28:49;;;;;;;3.63;1.98;;;;;;;18.35;40.54;101058.84;5135267;27;20092;-69
2022/06/18 06:31:16;;;;;;;4.38;1.75;;;;;;;18.46;40.33;101054.69;5135463;27;20070;-70
2022/06/18 06:33:43;;;;;;;4.18;1.90;;;;;;;18.58;40.38;101049.50;5135187;28;20142;-69
2022/06/18 06:36:11;;;;;;;6.80;1.80;;;;;;;18.76;40.15;101041.63;5135329;28;20137;-70
2022/06/18 06:38:39;;;;;;;7.35;2.05;;;;;;;18.85;40.01;101048.50;5135543;28;20043;-70
2022/06/18 06:41:12;;;;;;;5.93;2.13;;;;;;;19.08;39.07;101033.72;5135784;28;20077;-70
2022/06/18 06:43:39;;;;;;;8.70;2.20;;;;;;;19.22;39.05;101038.09;5136435;28;20043;-70
2022/06/18 06:46:06;;;;;;;4.95;2.20;;;;;;;19.41;38.97;101029.06;5135920;28;20055;-69
2022/06/18 06:48:32;;;;;;;6.53;2.08;;;;;;;19.58;38.57;101034.91;5135680;28;20072;-70
2022/06/18 06:51:00;;;;;;;6.93;2.20;;;;;;;19.92;37.67;101033.81;5136192;28;20133;-70
2022/06/18 06:53:27;;;;;;;8.70;1.90;;;;;;;20.07;37.53;101040.88;5136614;28;20103;-70
2022/06/18 06:58:38;;;;;;;4.43;1.95;;;;;;;20.71;36.21;101036.41;5136497;28;20467;-69
2022/06/18 07:01:05;;;;;;;5.40;2.13;;;;;;;21.10;35.98;101032.53;5135986;28;20071;-69
2022/06/18 07:03:33;;;;;;;5.97;2.25;;;;;;;21.36;35.48;101032.34;5136260;28;20043;-69
2022/06/18 07:06:01;;;;;;;5.65;1.98;;;;;;;21.50;34.67;101030.31;5136359;28;20055;-69
2022/06/18 07:08:29;;;;;;;5.88;2.72;;;;;;;21.74;33.47;101025.03;5137452;27;20112;-69
2022/06/18 07:10:56;;;;;;;5.85;2.05;;;;;;;22.30;33.07;101024.78;5141131;27;20083;-69
2022/06/18 07:13:29;;;;;;;5.28;2.30;;;;;;;22.74;32.29;101019.09;5141886;27;20111;-69
2022/06/18 07:15:56;;;;;;;4.40;2.50;;;;;;;22.69;31.61;101014.34;5141210;27;20078;-70
2022/06/18 07:18:25;;;;;;;3.65;2.35;;;;;;;23.22;30.97;101012.66;5141075;27;20541;-70
2022/06/18 07:20:52;;;;;;;5.95;2.22;;;;;;;23.65;30.29;101009.56;5141465;27;20047;-70
2022/06/18 07:23:18;;;;;;;4.50;2.25;;;;;;;23.97;29.45;101017.38;5142568;27;20043;-69
2022/06/18 07:25:45;;;;;;;6.40;2.25;;;;;;;24.17;29.35;101011.50;5142641;27;20082;-70
2022/06/18 07:28:11;;;;;;;7.35;2.17;;;;;;;24.73;28.45;101006.25;5142766;27;20087;-70
2022/06/18 07:30:38;;;;;;;7.55;2.10;;;;;;;24.99;28.21;101005.59;5141917;27;20047;-69
2022/06/18 07:33:05;;;;;;;6.40;2.00;;;;;;;25.26;27.59;101003.00;5143110;27;20104;-69
2022/06/18 07:35:34;;;;;;;3.90;2.00;;;;;;;25.64;27.11;101009.63;5141535;27;20540;-70
2022/06/18 07:38:02;;;;;;;6.55;1.95;;;;;;;25.30;27.77;101004.16;5141542;27;20062;-70
2022/06/18 07:40:44;;;;;;;10.35;1.80;;;;;;;25.54;27.15;101001.19;5141513;27;20073;-70
2022/06/18 07:43:17;;;;;;;3.67;1.80;;;;;;;26.15;26.36;100999.25;5140565;27;20066;-69
2022/06/18 07:45:44;;;;;;;7.10;1.98;;;;;;;26.72;25.86;100997.91;5139206;27;20051;-70
2022/06/18 07:48:11;;;;;;;10.40;1.90;;;;;;;27.20;25.70;100987.88;5139399;27;20444;-69
2022/06/18 07:50:42;;;;;;;2.20;1.65;;;;;;;27.40;24.89;100982.50;5139790;27;20115;-69
2022/06/18 07:53:17;;;;;;;;;;;;;;;27.12;24.90;100983.69;5140095;27;20082;-69
2022/06/18 07:55:43;;;;;;;7.25;1.90;;;;;;;27.35;24.86;100985.25;5139769;27;19983;-70
2022/06/18 07:58:10;;;;;;;4.00;1.80;;;;;;;27.92;24.12;100983.63;5140037;27;20055;-69
2022/06/18 08:00:39;;;;;;;5.55;1.50;;;;;;;27.96;23.60;100979.22;5139154;27;20144;-69
2022/06/18 08:03:07;;;;;;;6.47;1.50;;;;;;;28.22;23.80;100969.09;5139168;27;20407;-69
2022/06/18 08:05:34;;;;;;;6.45;1.83;;;;;;;28.01;24.05;100975.63;5138904;27;20410;-69
2022/06/18 08:08:01;;;;;;;4.47;1.40;;;;;;;27.93;23.61;100972.28;5139247;27;20479;-70
2022/06/18 08:10:51;;;;;;;9.85;2.10;;;;;;;27.57;24.20;100965.78;5139604;27;20050;-69
2022/06/18 08:13:18;;;;;;;7.63;1.52;;;;;;;28.07;24.11;100958.00;5138695;27;20569;-69
2022/06/18 08:15:47;;;;;;;6.22;1.65;;;;;;;28.77;23.48;100945.41;5138887;27;20048;-70
2022/06/18 08:18:14;;;;;;;3.80;1.45;;;;;;;29.47;22.61;100947.50;5139862;27;20122;-69
2022/06/18 08:21:10;;;;;;;6.95;1.50;;;;;;;29.36;22.66;100938.44;5138439;27;20055;-69
2022/06/18 08:23:38;;;;;;;2.67;1.30;;;;;;;29.70;22.46;100935.81;5138529;27;20051;-70
2022/06/18 08:26:06;;;;;;;6.15;1.63;;;;;;;29.64;22.32;100930.63;5138297;27;20137;-69
2022/06/18 08:28:35;;;;;;;4.22;1.30;;;;;;;30.34;21.89;100934.09;5138532;27;20138;-70
2022/06/18 08:31:04;;;;;;;9.68;1.65;;;;;;;30.36;21.90;100931.84;5139102;27;20054;-69
2022/06/18 08:33:31;;;;;;;8.88;1.50;;;;;;;31.09;21.39;100927.34;5139678;27;20478;-69
2022/06/18 08:36:03;;;;;;;7.63;1.50;;;;;;;30.57;21.75;100932.56;5139561;27;20054;-69
2022/06/18 08:38:30;;;;;;;4.78;1.40;;;;;;;30.88;21.15;100933.09;5139386;27;20424;-70
2022/06/18 08:41:34;;;;;;;6.40;1.38;;;;;;;30.26;21.69;100932.75;5138426;27;20107;-68
2022/06/18 08:44:24;;;;;;;4.53;1.50;;;;;;;31.15;21.02;100932.56;5120197;27;20087;-68
2022/06/18 08:47:15;;;;;;;6.80;1.50;;;;;;;31.66;20.51;100925.59;5126943;27;20122;-68
2022/06/18 08:49:48;;;;;;;6.68;1.73;;;;;;;31.66;20.34;100931.97;5138187;27;20079;-69
2022/06/18 08:52:43;;;;;;;4.70;1.27;;;;;;;31.75;20.96;100929.38;5137794;27;20078;-68
2022/06/18 08:55:31;;;;;;;2.28;1.30;;;;;;;31.65;20.73;100907.31;5137819;27;20047;-69
2022/06/18 08:58:00;;;;;;;2.70;1.20;;;;;;;30.79;21.93;100913.50;5137954;27;20435;-69
2022/06/18 09:00:48;;;;;;;8.15;1.30;;;;;;;31.09;21.66;100914.34;5136866;27;20054;-69
2022/06/18 09:03:22;;;;;;;2.22;1.25;;;;;;;31.66;21.19;100906.19;5137312;27;20050;-70
2022/06/18 09:05:58;;;;;;;3.55;1.27;;;;;;;30.84;21.69;100911.78;5136984;27;20078;-69
2022/06/18 09:08:37;;;;;;;8.38;1.48;;;;;;;31.21;21.37;100906.44;5137276;27;20043;-69
2022/06/18 09:11:33;;;;;;;4.97;1.40;;;;;;;31.40;21.12;100900.09;5137870;27;20139;-69
2022/06/18 09:13:59;;;;;;;9.45;1.60;;;;;;;32.29;20.41;100889.16;5137085;27;20538;-69
2022/06/18 09:16:35;;;;;;;5.70;1.63;;;;;;;32.75;20.07;100885.59;5136475;27;20130;-69
2022/06/18 09:19:07;;;;;;;3.50;1.45;;;;;;;33.05;19.34;100889.78;5136929;27;20054;-69
2022/06/18 09:21:41;;;;;;;7.40;2.83;;;;;;;32.33;20.41;100890.19;5136979;27;20070;-69
2022/06/18 09:24:11;;;;;;;9.18;2.50;;;;;;;32.40;20.30;100895.38;5137372;27;20410;-68
2022/06/18 09:26:50;;;;;;;4.15;1.27;;;;;;;31.95;20.74;100884.66;5137515;27;20075;-68
2022/06/18 09:29:21;;;;;;;5.60;1.48;;;;;;;32.17;20.48;100884.09;5136452;27;20542;-68
2022/06/18 09:31:55;;;;;;;3.28;1.30;;;;;;;31.82;20.81;100892.91;5135609;27;20133;-68
2022/06/18 09:34:32;;;;;;;7.68;1.50;;;;;;;31.36;21.05;100887.97;5135770;27;20054;-70
2022/06/18 09:37:05;;;;;;;12.05;1.50;;;;;;;31.31;22.13;100875.00;5136436;27;20138;-69
2022/06/18 09:39:39;;;;;;;7.90;1.70;;;;;;;31.65;21.04;100883.19;5135889;27;20138;-69
2022/06/18 09:42:13;;;;;;;3.45;1.40;;;;;;;31.47;21.34;100893.09;5135803;27;20142;-68
2022/06/18 09:44:55;;;;;;;6.53;1.20;;;;;;;32.28;20.50;100876.41;5136066;27;20513;-69
2022/06/18 09:47:34;;;;;;;7.05;1.48;;;;;;;31.91;20.98;100891.13;5135594;27;20047;-69
2022/06/18 09:50:02;;;;;;;2.67;1.20;;;;;;;33.03;19.60;100875.41;5136605;27;20392;-68
2022/06/18 09:52:37;;;;;;;5.05;1.50;;;;;;;33.25;19.28;100877.44;5135220;27;20139;-68
2022/06/18 09:55:09;;;;;;;4.95;1.50;;;;;;;32.33;20.46;100872.72;5135154;27;20137;-68
2022/06/18 09:57:40;;;;;;;9.60;2.25;;;;;;;31.78;21.19;100867.72;5135789;27;20071;-69
2022/06/18 10:00:16;;;;;;;7.25;1.70;;;;;;;31.87;21.32;100870.66;5135480;27;20138;-68
2022/06/18 10:02:54;;;;;;;10.90;1.80;;;;;;;32.23;20.66;100870.94;5135684;27;20051;-69
2022/06/18 10:08:15;;;;;;;13.23;1.98;;;;;;;32.49;20.99;100868.59;5135753;27;20070;-68
2022/06/18 10:10:49;;;;;;;8.30;2.40;;;;;;;32.35;20.80;100867.69;5135333;27;20133;-69
2022/06/18 10:13:22;;;;;;;5.00;1.70;;;;;;;32.47;20.81;100856.91;5135190;27;20475;-69
2022/06/18 10:15:49;;;;;;;3.25;1.73;;;;;;;33.24;19.75;100863.81;5135627;27;20129;-69
2022/06/18 10:18:44;;;;;;;6.80;1.42;;;;;;;33.46;19.71;100858.38;5135906;27;20497;-68
2022/06/18 10:21:27;;;;;;;4.57;1.50;;;;;;;33.21;20.02;100856.97;5137496;27;20509;-69
2022/06/18 10:24:49;;;;;;;4.93;1.83;;;;;;;33.11;19.96;100854.38;5135443;27;20138;-69
2022/06/18 10:27:35;;;;;;;15.27;1.80;;;;;;;32.57;20.98;100847.63;5108778;27;20147;-69
2022/06/18 10:30:16;;;;;;;6.75;1.48;;;;;;;33.25;20.10;100846.84;5135829;27;20100;-69
2022/06/18 10:33:05;;;;;;;4.55;1.88;;;;;;;32.61;21.00;100848.66;5136994;28;20145;-68
2022/06/18 10:35:50;;;;;;;9.93;2.25;;;;;;;32.45;21.19;100836.97;5137153;28;20047;-68
2022/06/18 10:38:28;;;;;;;7.38;1.75;;;;;;;32.31;21.28;100841.69;5137371;28;20454;-69
2022/06/18 10:41:12;;;;;;;8.45;1.73;;;;;;;33.46;19.76;100844.47;5136596;28;20083;-69
2022/06/18 10:44:02;;;;;;;10.55;1.98;;;;;;;32.35;20.53;100832.44;5137943;27;20083;-69
2022/06/18 10:46:29;;;;;;;5.80;2.03;;;;;;;32.24;21.37;100828.19;5141391;27;20047;-69
2022/06/18 10:48:59;;;;;;;12.13;2.10;;;;;;;31.77;21.91;100827.25;5140705;27;20051;-70
2022/06/18 10:51:27;;;;;;;;;;;;;;;31.32;21.88;100837.03;5140243;27;20075;-68
2022/06/18 10:54:03;;;;;;;9.18;2.20;;;;;;;31.23;22.54;100828.56;5140496;27;20430;-69
2022/06/18 10:56:32;;;;;;;8.65;1.50;;;;;;;31.21;22.37;100828.84;5140468;27;20126;-70
2022/06/18 10:59:01;;;;;;;9.20;2.10;;;;;;;31.20;22.42;100823.59;5140454;27;20046;-69
2022/06/18 11:01:49;;;;;;;10.15;2.00;;;;;;;31.30;22.55;100822.63;5140417;27;20122;-68
2022/06/18 11:04:28;;;;;;;5.72;1.40;;;;;;;30.49;23.18;100814.91;5140174;27;20055;-69
2022/06/18 11:07:02;;;;;;;8.25;1.80;;;;;;;31.11;22.46;100811.50;5140539;27;20114;-69
2022/06/18 11:09:57;;;;;;;16.63;2.38;;;;;;;30.65;22.92;100823.94;5140504;27;20047;-69
2022/06/18 11:12:31;;;;;;;10.18;1.80;;;;;;;30.60;22.15;100814.84;5128555;27;20047;-69
2022/06/18 11:14:58;;;;;;;10.15;1.98;;;;;;;30.57;22.52;100810.75;5140002;27;20107;-69
2022/06/18 11:17:31;;;;;;;4.72;2.28;;;;;;;30.52;22.84;100824.63;5139407;27;20057;-69
2022/06/18 11:20:19;;;;;;;9.55;2.40;;;;;;;30.39;22.54;100825.25;5138812;27;20047;-69
2022/06/18 11:22:52;;;;;;;10.73;2.70;;;;;;;30.13;22.30;100813.63;5138828;27;20130;-69
2022/06/18 11:25:35;;;;;;;10.98;2.22;;;;;;;30.36;22.21;100817.53;5138287;27;20078;-69
2022/06/18 11:28:06;;;;;;;12.07;2.47;;;;;;;30.62;22.01;100818.16;5138257;27;20047;-69
2022/06/18 11:30:40;;;;;;;7.15;2.10;;;;;;;30.67;21.99;100816.13;5139617;27;20083;-69
2022/06/18 11:33:19;;;;;;;11.55;3.50;;;;;;;30.52;21.81;100813.53;5139211;27;20107;-69
2022/06/18 11:35:50;;;;;;;8.93;2.05;;;;;;;30.48;21.82;100813.28;5138254;27;20046;-70
2022/06/18 11:38:28;;;;;;;13.80;2.63;;;;;;;30.37;21.38;100811.72;5138032;27;20082;-69
2022/06/18 11:41:00;;;;;;;19.42;2.83;;;;;;;29.99;22.03;100818.94;5138484;27;20502;-69
2022/06/18 11:43:45;;;;;;;7.38;2.65;;;;;;;29.89;22.81;100805.19;5140199;27;20089;-69
2022/06/18 11:46:19;;;;;;;14.55;2.67;;;;;;;29.77;22.95;100809.16;5138964;27;20138;-69
2022/06/18 11:49:08;;;;;;;7.10;2.20;;;;;;;29.74;23.01;100798.66;5139239;27;20082;-69
2022/06/18 11:52:12;;;;;;;14.90;2.97;;;;;;;29.55;23.07;100789.38;5139274;27;20092;-70
2022/06/18 11:54:47;;;;;;;12.85;3.00;;;;;;;29.59;23.29;100801.53;5138626;27;20514;-69
2022/06/18 11:57:25;;;;;;;11.93;3.13;;;;;;;29.59;23.21;100799.56;5137083;27;20057;-69